Time;durP1;ratioP1;P1;durP2;ratioP2;P2;SDS_P1;SDS_P2;PMS_P1;PMS_P2;Temp;Humidity;BMP_temperature;BMP_pressure;BME280_temperature;BME280_humidity;BME280_pressure;Samples;Min_cycle;Max_cycle;Signal;HPM_P1;HPM_P2
2022/09/08 00:01:43;;;;;;;18.43;14.57;;;;;;;;;;4882520;29;20188;-43
2022/09/08 00:04:10;;;;;;;24.00;16.67;;;;;;;;;;4887853;29;20754;-43
2022/09/08 00:06:36;;;;;;;25.00;17.00;;;;;;;;;;4888465;29;20204;-42
2022/09/08 00:09:02;;;;;;;17.37;15.53;;;;;;;;;;4883119;29;20263;-43
2022/09/08 00:11:30;;;;;;;17.80;14.67;;;;;;;;;;4885420;29;20196;-43
2022/09/08 00:14:01;;;;;;;19.43;14.07;;;;;;;;;;4883170;29;20664;-44
2022/09/08 00:16:27;;;;;;;20.80;13.07;;;;;;;;;;4884848;29;20203;-43
2022/09/08 00:18:54;;;;;;;21.23;13.77;;;;;;;;;;4885924;29;20291;-43
2022/09/08 00:21:21;;;;;;;18.10;13.20;;;;;;;;;;4885929;29;20671;-44
2022/09/08 00:23:47;;;;;;;16.13;12.43;;;;;;;;;;4886108;29;20208;-43
2022/09/08 00:26:13;;;;;;;17.83;12.70;;;;;;;;;;4884718;28;20207;-44
2022/09/08 00:28:39;;;;;;;15.43;11.00;;;;;;;;;;4897689;28;20188;-44
2022/09/08 00:31:05;;;;;;;12.63;10.90;;;;;;;;;;4884528;29;21093;-43
2022/09/08 00:33:32;;;;;;;14.27;11.07;;;;;;;;;;4885402;29;20401;-44
2022/09/08 00:35:59;;;;;;;13.73;10.93;;;;;;;;;;4884430;29;20466;-44
2022/09/08 00:38:26;;;;;;;15.50;11.20;;;;;;;;;;4883624;29;20330;-43
2022/09/08 00:40:52;;;;;;;11.07;9.30;;;;;;;;;;4880874;29;21266;-43
2022/09/08 00:43:37;;;;;;;13.57;10.20;;;;;;;;;;4898058;28;20250;-44
2022/09/08 00:46:09;;;;;;;13.43;9.47;;;;;;;;;;4883690;29;20414;-43
2022/09/08 00:48:54;;;;;;;11.63;9.80;;;;;;;;;;4885315;29;20187;-42
2022/09/08 00:51:21;;;;;;;14.03;9.67;;;;;;;;;;4881852;29;20504;-43
2022/09/08 00:53:48;;;;;;;10.90;9.20;;;;;;;;;;4881927;29;20302;-44
2022/09/08 00:56:14;;;;;;;14.07;10.17;;;;;;;;;;4882670;29;20841;-44
2022/09/08 00:58:40;;;;;;;11.80;8.80;;;;;;;;;;4881297;28;20223;-43
2022/09/08 01:01:07;;;;;;;14.20;9.60;;;;;;;;;;4883489;29;20853;-43
2022/09/08 01:03:33;;;;;;;10.80;8.23;;;;;;;;;;4886142;29;20962;-44
2022/09/08 01:06:19;;;;;;;14.63;9.90;;;;;;;;;;4888647;29;20485;-44
2022/09/08 01:14:53;;;;;;;12.67;8.90;;;;;;;;;;4887202;29;20242;-44
2022/09/08 01:17:21;;;;;;;10.23;8.17;;;;;;;;;;4883387;28;20741;-43
2022/09/08 01:19:47;;;;;;;12.47;9.33;;;;;;;;;;4888171;29;20612;-43
2022/09/08 01:22:32;;;;;;;16.73;10.03;;;;;;;;;;4882025;29;20215;-42
2022/09/08 01:25:17;;;;;;;12.63;9.30;;;;;;;;;;4888681;29;20203;-44
2022/09/08 01:27:45;;;;;;;13.33;10.53;;;;;;;;;;4890038;29;20444;-43
2022/09/08 01:30:11;;;;;;;11.27;10.03;;;;;;;;;;4886935;29;20602;-44
2022/09/08 01:32:39;;;;;;;12.60;10.50;;;;;;;;;;4883255;28;20444;-43
2022/09/08 01:35:06;;;;;;;13.20;10.00;;;;;;;;;;4889797;29;20240;-43
2022/09/08 01:37:32;;;;;;;12.40;9.37;;;;;;;;;;4891244;29;20503;-43
2022/09/08 01:39:58;;;;;;;13.07;9.73;;;;;;;;;;4888612;29;20414;-43
2022/09/08 01:42:25;;;;;;;14.37;10.47;;;;;;;;;;4887656;29;20199;-44
2022/09/08 01:44:51;;;;;;;16.60;11.30;;;;;;;;;;4883878;29;20184;-43
2022/09/08 01:47:17;;;;;;;17.10;11.03;;;;;;;;;;4884235;29;20437;-43
2022/09/08 01:49:43;;;;;;;12.97;10.07;;;;;;;;;;4882214;29;20595;-44
2022/09/08 01:52:09;;;;;;;16.43;11.20;;;;;;;;;;4879703;29;20783;-42
2022/09/08 01:54:35;;;;;;;16.63;12.90;;;;;;;;;;4883297;29;20279;-44
2022/09/08 01:57:02;;;;;;;13.57;11.53;;;;;;;;;;4886689;29;20680;-43
2022/09/08 01:59:28;;;;;;;18.57;14.10;;;;;;;;;;4888606;29;20503;-43
2022/09/08 02:01:54;;;;;;;17.40;15.60;;;;;;;;;;4883068;29;20211;-44
2022/09/08 02:04:20;;;;;;;21.00;15.83;;;;;;;;;;4886773;29;20890;-43
2022/09/08 02:06:47;;;;;;;16.63;14.80;;;;;;;;;;4882020;28;20476;-43
2022/09/08 02:09:13;;;;;;;19.43;14.93;;;;;;;;;;4881573;28;21504;-44
2022/09/08 02:11:39;;;;;;;16.40;14.13;;;;;;;;;;4885904;29;20177;-42
2022/09/08 02:14:05;;;;;;;17.57;13.83;;;;;;;;;;4888467;29;20184;-44
2022/09/08 02:16:31;;;;;;;16.87;12.87;;;;;;;;;;4887357;29;20195;-43
2022/09/08 02:18:57;;;;;;;21.83;14.77;;;;;;;;;;4893577;29;20335;-44
2022/09/08 02:21:24;;;;;;;17.13;13.10;;;;;;;;;;4888411;29;20901;-43
2022/09/08 02:23:51;;;;;;;19.20;13.27;;;;;;;;;;4886351;29;20214;-43
2022/09/08 02:26:21;;;;;;;18.20;13.90;;;;;;;;;;4886183;28;20929;-43
2022/09/08 02:28:47;;;;;;;14.37;12.50;;;;;;;;;;4892394;28;20222;-43
2022/09/08 02:31:14;;;;;;;16.97;12.97;;;;;;;;;;4885765;29;20623;-43
2022/09/08 02:33:40;;;;;;;18.00;13.70;;;;;;;;;;4889196;29;20590;-43
2022/09/08 02:36:07;;;;;;;19.37;14.73;;;;;;;;;;4888799;29;20301;-42
2022/09/08 02:38:33;;;;;;;19.53;14.80;;;;;;;;;;4888826;29;20251;-44
2022/09/08 02:41:00;;;;;;;16.00;12.93;;;;;;;;;;4887710;29;20256;-44
2022/09/08 02:43:27;;;;;;;16.07;13.20;;;;;;;;;;4887095;29;20236;-44
2022/09/08 02:45:53;;;;;;;15.93;13.43;;;;;;;;;;4887711;29;20183;-44
2022/09/08 02:48:19;;;;;;;18.33;14.73;;;;;;;;;;4889699;29;20192;-43
2022/09/08 02:50:45;;;;;;;17.13;14.50;;;;;;;;;;4884718;29;20578;-43
2022/09/08 02:53:11;;;;;;;16.40;13.27;;;;;;;;;;4886609;29;20192;-44
2022/09/08 02:55:38;;;;;;;20.00;14.30;;;;;;;;;;4886641;29;20397;-44
2022/09/08 02:58:05;;;;;;;18.63;14.67;;;;;;;;;;4887348;29;20445;-42
2022/09/08 03:00:32;;;;;;;20.00;14.60;;;;;;;;;;4883812;29;20634;-43
2022/09/08 03:02:59;;;;;;;15.90;13.43;;;;;;;;;;4886277;29;20201;-44
2022/09/08 03:05:25;;;;;;;13.10;11.70;;;;;;;;;;4885681;29;21580;-44
2022/09/08 03:07:51;;;;;;;19.20;15.00;;;;;;;;;;4886008;29;20265;-43
2022/09/08 03:10:23;;;;;;;20.27;16.60;;;;;;;;;;4886375;29;20291;-43
2022/09/08 03:12:51;;;;;;;19.33;15.43;;;;;;;;;;4887848;29;20664;-43
2022/09/08 03:15:17;;;;;;;22.90;16.67;;;;;;;;;;4887041;29;20183;-43
2022/09/08 03:17:43;;;;;;;21.60;18.10;;;;;;;;;;4886070;29;20789;-43
2022/09/08 03:20:09;;;;;;;24.70;18.70;;;;;;;;;;4889626;29;20191;-43
2022/09/08 03:22:36;;;;;;;17.63;13.97;;;;;;;;;;4881174;29;20558;-43
2022/09/08 03:25:03;;;;;;;20.17;15.57;;;;;;;;;;4882773;29;20203;-43
2022/09/08 03:27:29;;;;;;;19.93;16.10;;;;;;;;;;4886425;29;20188;-43
2022/09/08 03:29:55;;;;;;;16.53;14.80;;;;;;;;;;4889923;29;20338;-44
2022/09/08 03:32:22;;;;;;;20.83;17.30;;;;;;;;;;4887844;29;20184;-43
2022/09/08 03:34:48;;;;;;;17.93;15.27;;;;;;;;;;4888208;29;20199;-43
2022/09/08 03:37:14;;;;;;;16.13;13.63;;;;;;;;;;4886096;29;20188;-42
2022/09/08 03:39:40;;;;;;;16.20;12.83;;;;;;;;;;4884340;29;22056;-42
2022/09/08 03:42:07;;;;;;;17.57;14.93;;;;;;;;;;4886891;29;20248;-43
2022/09/08 03:44:33;;;;;;;20.23;15.83;;;;;;;;;;4887373;29;20707;-43
2022/09/08 03:47:00;;;;;;;17.67;14.63;;;;;;;;;;4887934;29;20491;-44
2022/09/08 03:49:26;;;;;;;17.87;15.47;;;;;;;;;;4883524;29;20176;-43
2022/09/08 03:51:52;;;;;;;20.50;14.37;;;;;;;;;;4882371;29;20211;-42
2022/09/08 03:57:04;;;;;;;20.40;15.50;;;;;;;;;;4891455;29;20284;-43
2022/09/08 03:59:30;;;;;;;18.80;14.93;;;;;;;;;;4889436;29;20581;-43
2022/09/08 04:01:56;;;;;;;19.47;15.80;;;;;;;;;;4884948;29;20193;-43
2022/09/08 04:04:23;;;;;;;23.07;15.83;;;;;;;;;;4885506;29;20209;-44
2022/09/08 04:06:49;;;;;;;23.93;16.43;;;;;;;;;;4891360;29;20842;-43
2022/09/08 04:09:15;;;;;;;32.07;16.80;;;;;;;;;;4887125;29;20292;-43
2022/09/08 04:11:42;;;;;;;24.47;16.13;;;;;;;;;;4881983;29;20219;-43
2022/09/08 04:14:08;;;;;;;23.63;16.80;;;;;;;;;;4884678;28;20184;-43
2022/09/08 04:16:35;;;;;;;18.40;15.93;;;;;;;;;;4886675;29;20271;-44
2022/09/08 04:19:01;;;;;;;24.87;15.67;;;;;;;;;;4887238;29;20830;-43
2022/09/08 04:21:27;;;;;;;23.33;16.47;;;;;;;;;;4886855;29;20226;-44
2022/09/08 04:23:53;;;;;;;33.10;17.63;;;;;;;;;;4883741;29;21531;-43
2022/09/08 04:26:19;;;;;;;24.97;16.77;;;;;;;;;;4889066;29;20808;-43
2022/09/08 04:28:46;;;;;;;20.63;15.80;;;;;;;;;;4889076;29;20477;-44
2022/09/08 04:31:13;;;;;;;23.87;17.43;;;;;;;;;;4884693;28;20466;-44
2022/09/08 04:33:40;;;;;;;19.27;16.20;;;;;;;;;;4886858;29;20181;-43
2022/09/08 04:36:11;;;;;;;19.20;17.10;;;;;;;;;;4891139;29;21206;-43
2022/09/08 04:38:38;;;;;;;20.53;17.20;;;;;;;;;;4886393;29;20194;-43
2022/09/08 04:41:08;;;;;;;19.13;16.47;;;;;;;;;;4887735;29;20196;-42
2022/09/08 04:43:34;;;;;;;19.30;16.43;;;;;;;;;;4887993;29;20299;-43
2022/09/08 04:46:02;;;;;;;18.13;15.63;;;;;;;;;;4880668;29;20263;-44
2022/09/08 04:48:29;;;;;;;23.57;18.67;;;;;;;;;;4885263;29;20274;-42
2022/09/08 04:50:55;;;;;;;19.73;16.77;;;;;;;;;;4888355;29;20181;-43
2022/09/08 04:53:22;;;;;;;26.27;19.30;;;;;;;;;;4885134;29;20194;-43
2022/09/08 04:55:48;;;;;;;22.03;18.17;;;;;;;;;;4885934;29;20192;-42
2022/09/08 04:58:14;;;;;;;18.97;16.67;;;;;;;;;;4884375;29;22480;-42
2022/09/08 05:00:40;;;;;;;20.97;15.03;;;;;;;;;;4888591;28;20214;-42
2022/09/08 05:03:06;;;;;;;23.20;18.17;;;;;;;;;;4893004;29;20388;-42
2022/09/08 05:05:35;;;;;;;23.93;18.30;;;;;;;;;;4890743;29;20231;-42
2022/09/08 05:08:01;;;;;;;23.33;18.23;;;;;;;;;;4888684;29;20619;-42
2022/09/08 05:10:28;;;;;;;23.77;17.57;;;;;;;;;;4884987;29;20188;-42
2022/09/08 05:12:54;;;;;;;22.93;17.60;;;;;;;;;;4891439;29;20188;-42
2022/09/08 05:15:22;;;;;;;21.87;18.47;;;;;;;;;;4886827;29;20713;-42
2022/09/08 05:17:49;;;;;;;25.87;17.93;;;;;;;;;;4893019;28;20184;-42
2022/09/08 05:20:15;;;;;;;21.13;16.33;;;;;;;;;;4891254;29;20368;-42
2022/09/08 05:22:41;;;;;;;23.03;18.00;;;;;;;;;;4892373;29;20693;-42
2022/09/08 05:25:08;;;;;;;20.93;17.10;;;;;;;;;;4888505;29;20199;-42
2022/09/08 05:27:34;;;;;;;22.93;18.43;;;;;;;;;;4888943;29;20493;-42
2022/09/08 05:30:00;;;;;;;22.13;17.27;;;;;;;;;;4885499;29;20186;-43
2022/09/08 05:32:26;;;;;;;26.93;16.23;;;;;;;;;;4889759;29;20280;-42
2022/09/08 05:34:52;;;;;;;19.57;17.10;;;;;;;;;;4889747;29;20314;-43
2022/09/08 05:37:18;;;;;;;20.80;18.10;;;;;;;;;;4888751;29;21072;-43
2022/09/08 05:39:46;;;;;;;19.50;15.87;;;;;;;;;;4891808;28;20185;-42
2022/09/08 05:42:13;;;;;;;25.87;18.03;;;;;;;;;;4892156;29;20181;-42
2022/09/08 05:44:39;;;;;;;23.00;16.37;;;;;;;;;;4887247;29;20429;-43
2022/09/08 05:47:05;;;;;;;21.70;17.00;;;;;;;;;;4886414;29;20449;-42
2022/09/08 05:49:32;;;;;;;19.73;16.43;;;;;;;;;;4889539;29;20180;-42
2022/09/08 05:51:58;;;;;;;23.67;17.37;;;;;;;;;;4889730;29;20514;-43
2022/09/08 05:54:24;;;;;;;21.43;15.83;;;;;;;;;;4892401;29;20527;-43
2022/09/08 05:56:50;;;;;;;24.07;16.23;;;;;;;;;;4890434;29;20204;-43
2022/09/08 05:59:16;;;;;;;20.90;16.47;;;;;;;;;;4891636;29;21059;-42
2022/09/08 06:01:42;;;;;;;19.20;14.13;;;;;;;;;;4891282;29;20247;-42
2022/09/08 06:04:09;;;;;;;22.37;16.60;;;;;;;;;;4893509;29;20207;-42
2022/09/08 06:06:35;;;;;;;21.07;15.30;;;;;;;;;;4891473;29;20220;-42
2022/09/08 06:09:01;;;;;;;28.03;19.17;;;;;;;;;;4891698;29;20219;-43
2022/09/08 06:11:28;;;;;;;25.03;19.57;;;;;;;;;;4888077;29;20275;-43
2022/09/08 06:13:55;;;;;;;28.20;20.50;;;;;;;;;;4889072;29;20188;-42
2022/09/08 06:16:21;;;;;;;27.93;20.83;;;;;;;;;;4887516;29;20279;-43
2022/09/08 06:18:48;;;;;;;27.77;20.63;;;;;;;;;;4892668;29;20691;-43
2022/09/08 06:21:15;;;;;;;26.10;22.00;;;;;;;;;;4888867;29;20184;-41
2022/09/08 06:23:42;;;;;;;31.40;23.47;;;;;;;;;;4892119;29;20406;-43
2022/09/08 06:26:20;;;;;;;24.60;19.77;;;;;;;;;;4892755;29;20199;-43
2022/09/08 06:29:04;;;;;;;24.37;20.03;;;;;;;;;;4888998;29;20738;-41
2022/09/08 06:31:38;;;;;;;25.23;21.13;;;;;;;;;;4888865;29;20737;-42
2022/09/08 06:34:12;;;;;;;30.67;22.00;;;;;;;;;;4891490;29;20176;-43
2022/09/08 06:36:41;;;;;;;28.53;23.07;;;;;;;;;;4893518;29;20175;-41
2022/09/08 06:39:11;;;;;;;29.33;23.13;;;;;;;;;;4898672;29;20712;-42
2022/09/08 06:41:44;;;;;;;30.20;23.30;;;;;;;;;;4893936;29;20195;-42
2022/09/08 06:44:16;;;;;;;26.87;21.57;;;;;;;;;;4899457;29;20264;-41
2022/09/08 06:46:43;;;;;;;32.07;22.93;;;;;;;;;;4901566;29;20177;-43
2022/09/08 06:49:11;;;;;;;28.37;22.47;;;;;;;;;;4901144;29;20294;-43
2022/09/08 06:51:42;;;;;;;29.77;22.53;;;;;;;;;;4894231;29;20700;-43
2022/09/08 06:54:11;;;;;;;24.33;19.90;;;;;;;;;;4898848;29;20188;-43
2022/09/08 06:56:47;;;;;;;26.50;21.00;;;;;;;;;;4898515;29;20184;-42
2022/09/08 06:59:27;;;;;;;23.43;18.40;;;;;;;;;;4895942;29;20176;-43
2022/09/08 07:01:59;;;;;;;27.27;19.27;;;;;;;;;;4898788;29;20724;-43
2022/09/08 07:04:51;;;;;;;25.23;19.53;;;;;;;;;;4894542;29;20207;-43
2022/09/08 07:07:24;;;;;;;18.60;15.83;;;;;;;;;;4886104;28;20542;-42
2022/09/08 07:09:56;;;;;;;20.00;16.50;;;;;;;;;;4888233;29;20184;-43
2022/09/08 07:12:25;;;;;;;24.80;16.40;;;;;;;;;;4886847;29;20184;-42
2022/09/08 07:15:15;;;;;;;27.50;17.27;;;;;;;;;;4891378;28;20192;-43
2022/09/08 07:17:46;;;;;;;22.80;16.47;;;;;;;;;;4887327;29;21064;-43
2022/09/08 07:20:13;;;;;;;20.53;14.80;;;;;;;;;;4885941;29;20306;-43
2022/09/08 07:22:48;;;;;;;25.60;15.60;;;;;;;;;;4889345;29;20357;-43
2022/09/08 07:25:26;;;;;;;17.70;14.27;;;;;;;;;;4887852;29;20459;-43
2022/09/08 07:28:00;;;;;;;24.40;14.47;;;;;;;;;;4880829;29;20172;-43
2022/09/08 07:30:26;;;;;;;21.83;15.03;;;;;;;;;;4885989;29;20688;-43
2022/09/08 07:32:56;;;;;;;19.60;13.37;;;;;;;;;;4881713;29;20226;-43
2022/09/08 07:35:41;;;;;;;19.93;14.30;;;;;;;;;;4887049;29;20428;-43
2022/09/08 07:38:12;;;;;;;25.00;15.13;;;;;;;;;;4888145;29;20703;-43
2022/09/08 07:40:43;;;;;;;19.50;14.33;;;;;;;;;;4883528;29;20230;-43
2022/09/08 07:43:14;;;;;;;20.27;14.23;;;;;;;;;;4892305;29;20219;-43
2022/09/08 07:45:48;;;;;;;23.30;13.87;;;;;;;;;;4889423;29;21278;-44
2022/09/08 07:48:14;;;;;;;21.90;13.73;;;;;;;;;;4886874;29;20184;-43
2022/09/08 07:50:55;;;;;;;17.67;14.37;;;;;;;;;;4887584;29;20613;-43
2022/09/08 07:53:31;;;;;;;20.70;14.03;;;;;;;;;;4891551;29;20184;-43
2022/09/08 07:56:03;;;;;;;20.63;17.53;;;;;;;;;;4890766;29;20191;-43
2022/09/08 07:58:35;;;;;;;24.67;16.77;;;;;;;;;;4890206;28;20875;-44
2022/09/08 08:01:01;;;;;;;18.20;14.83;;;;;;;;;;4887050;29;20198;-43
2022/09/08 08:03:37;;;;;;;24.63;16.60;;;;;;;;;;4899896;29;20208;-43
2022/09/08 08:06:08;;;;;;;17.97;13.93;;;;;;;;;;4899715;29;20690;-42
2022/09/08 08:08:37;;;;;;;23.90;16.43;;;;;;;;;;4887287;29;20209;-43
2022/09/08 08:11:09;;;;;;;19.70;16.90;;;;;;;;;;4888206;29;20190;-44
2022/09/08 08:13:54;;;;;;;21.37;15.47;;;;;;;;;;4885613;29;20188;-44
2022/09/08 08:16:31;;;;;;;20.07;13.97;;;;;;;;;;4891106;29;20219;-44
2022/09/08 08:19:06;;;;;;;22.30;14.30;;;;;;;;;;4886067;29;20184;-44
2022/09/08 08:21:35;;;;;;;18.90;13.70;;;;;;;;;;4888047;29;20579;-44
2022/09/08 08:24:07;;;;;;;26.00;14.47;;;;;;;;;;4889504;29;21528;-44
2022/09/08 08:26:40;;;;;;;22.70;13.87;;;;;;;;;;4891156;29;20184;-44
2022/09/08 08:29:12;;;;;;;18.93;12.83;;;;;;;;;;4885310;29;20191;-44
2022/09/08 08:31:43;;;;;;;18.33;11.93;;;;;;;;;;4897528;29;20614;-44
2022/09/08 08:34:25;;;;;;;18.33;12.77;;;;;;;;;;4897266;29;20179;-44
2022/09/08 08:36:51;;;;;;;19.40;12.60;;;;;;;;;;4895390;29;20176;-43
2022/09/08 08:39:19;;;;;;;15.87;12.60;;;;;;;;;;4889438;29;20595;-44
2022/09/08 08:42:15;;;;;;;16.70;11.80;;;;;;;;;;4888487;29;20652;-43
2022/09/08 08:44:41;;;;;;;18.17;12.90;;;;;;;;;;4894188;28;20207;-44
2022/09/08 08:47:26;;;;;;;15.53;10.83;;;;;;;;;;4891199;29;20792;-44
2022/09/08 08:50:12;;;;;;;17.53;12.90;;;;;;;;;;4891522;29;20728;-44
2022/09/08 08:52:41;;;;;;;19.90;13.00;;;;;;;;;;4894099;29;20180;-44
2022/09/08 08:55:08;;;;;;;14.87;10.37;;;;;;;;;;4894321;29;20610;-41
2022/09/08 08:57:34;;;;;;;15.13;9.43;;;;;;;;;;4898267;29;20177;-40
2022/09/08 09:00:07;;;;;;;13.20;9.47;;;;;;;;;;4899815;29;20561;-42
2022/09/08 09:02:33;;;;;;;12.17;8.60;;;;;;;;;;4887546;29;20948;-42
2022/09/08 09:05:12;;;;;;;9.03;5.97;;;;;;;;;;4888549;29;20211;-41
2022/09/08 09:07:39;;;;;;;14.27;6.47;;;;;;;;;;4887483;29;20175;-41
2022/09/08 09:10:06;;;;;;;11.60;5.40;;;;;;;;;;4886494;29;20570;-42
2022/09/08 09:12:47;;;;;;;11.43;6.53;;;;;;;;;;4891178;29;20752;-42
2022/09/08 09:15:22;;;;;;;11.20;7.10;;;;;;;;;;4893893;29;20195;-42
2022/09/08 09:18:03;;;;;;;10.83;5.97;;;;;;;;;;4889168;29;20678;-42
2022/09/08 09:20:38;;;;;;;16.13;8.87;;;;;;;;;;4886094;29;20575;-43
2022/09/08 09:23:04;;;;;;;15.40;10.33;;;;;;;;;;4891025;29;20231;-41
2022/09/08 09:25:31;;;;;;;11.53;9.40;;;;;;;;;;4889475;29;21274;-42
2022/09/08 09:28:10;;;;;;;13.43;8.97;;;;;;;;;;4896250;29;20180;-42
2022/09/08 09:30:58;;;;;;;15.20;7.43;;;;;;;;;;4901242;29;20176;-42
2022/09/08 09:33:30;;;;;;;13.50;7.80;;;;;;;;;;4899550;29;20409;-41
2022/09/08 09:36:14;;;;;;;15.37;9.30;;;;;;;;;;4895868;29;20231;-42
2022/09/08 09:38:50;;;;;;;16.13;9.00;;;;;;;;;;4896419;29;20243;-41
2022/09/08 09:41:16;;;;;;;13.13;8.13;;;;;;;;;;4900184;29;20180;-42
2022/09/08 09:43:48;;;;;;;11.93;5.70;;;;;;;;;;4896283;29;22463;-42
2022/09/08 09:46:23;;;;;;;15.43;7.80;;;;;;;;;;4907159;28;20173;-40
2022/09/08 09:49:08;;;;;;;11.77;6.90;;;;;;;;;;4903483;29;21063;-42
2022/09/08 09:51:36;;;;;;;10.60;5.57;;;;;;;;;;4898141;29;20183;-42
2022/09/08 09:54:02;;;;;;;16.77;7.17;;;;;;;;;;4897837;29;20195;-43
2022/09/08 09:56:28;;;;;;;11.47;6.53;;;;;;;;;;4895335;29;20282;-42
2022/09/08 09:58:57;;;;;;;14.43;6.63;;;;;;;;;;4903093;29;20211;-42
2022/09/08 10:01:35;;;;;;;12.73;5.80;;;;;;;;;;4898075;29;20868;-42
2022/09/08 10:04:20;;;;;;;10.80;4.90;;;;;;;;;;4901230;29;20201;-42
2022/09/08 10:07:04;;;;;;;13.73;4.67;;;;;;;;;;4901088;29;20206;-43
2022/09/08 10:09:30;;;;;;;13.23;5.60;;;;;;;;;;4900594;29;20180;-42
2022/09/08 10:12:19;;;;;;;14.23;4.77;;;;;;;;;;4902107;28;20187;-41
2022/09/08 10:14:54;;;;;;;8.43;4.57;;;;;;;;;;4901709;29;20180;-42
2022/09/08 10:17:29;;;;;;;11.00;4.27;;;;;;;;;;4901928;29;20282;-42
2022/09/08 10:20:14;;;;;;;8.70;3.87;;;;;;;;;;4899536;29;20239;-42
2022/09/08 10:22:52;;;;;;;11.17;4.57;;;;;;;;;;4900870;29;21229;-42
2022/09/08 10:25:37;;;;;;;12.60;3.93;;;;;;;;;;4901378;29;20212;-42
2022/09/08 10:28:10;;;;;;;12.33;5.97;;;;;;;;;;4902774;29;20168;-42
2022/09/08 10:30:37;;;;;;;9.43;4.93;;;;;;;;;;4901251;29;20180;-43
2022/09/08 10:33:12;;;;;;;11.00;5.23;;;;;;;;;;4904135;29;20559;-42
2022/09/08 10:35:39;;;;;;;9.90;4.87;;;;;;;;;;4901725;29;20202;-42
2022/09/08 10:38:28;;;;;;;9.10;3.90;;;;;;;;;;4903135;29;20259;-42
2022/09/08 10:40:57;;;;;;;9.90;3.90;;;;;;;;;;4915133;28;20243;-41
2022/09/08 10:43:32;;;;;;;11.73;4.20;;;;;;;;;;4897922;29;20204;-41
2022/09/08 10:45:58;;;;;;;12.50;3.90;;;;;;;;;;4899551;29;20207;-43
2022/09/08 10:48:24;;;;;;;8.40;3.97;;;;;;;;;;4901931;29;20176;-43
2022/09/08 10:50:51;;;;;;;9.97;3.77;;;;;;;;;;4898857;29;20188;-43
2022/09/08 10:53:36;;;;;;;4.80;2.97;;;;;;;;;;4896962;29;20277;-43
2022/09/08 10:56:02;;;;;;;7.43;3.30;;;;;;;;;;4886704;29;20423;-43
2022/09/08 10:58:31;;;;;;;11.83;3.70;;;;;;;;;;4887755;29;22201;-43
2022/09/08 11:01:07;;;;;;;8.83;3.57;;;;;;;;;;4887884;29;20208;-43
2022/09/08 11:03:33;;;;;;;6.57;3.40;;;;;;;;;;4888907;29;20199;-42
2022/09/08 11:06:16;;;;;;;14.23;4.20;;;;;;;;;;4883673;29;20298;-41
2022/09/08 11:09:00;;;;;;;7.50;3.40;;;;;;;;;;4892509;29;20235;-43
2022/09/08 11:11:46;;;;;;;9.17;3.60;;;;;;;;;;4887364;28;20560;-43
2022/09/08 11:14:31;;;;;;;6.93;3.20;;;;;;;;;;4894864;28;20196;-43
2022/09/08 11:17:17;;;;;;;10.20;3.43;;;;;;;;;;4889105;29;20814;-42
2022/09/08 11:19:48;;;;;;;10.43;3.30;;;;;;;;;;4891594;29;20481;-43
2022/09/08 11:22:33;;;;;;;9.33;3.10;;;;;;;;;;4886847;29;20307;-43
2022/09/08 11:25:14;;;;;;;6.57;2.80;;;;;;;;;;4888736;29;20957;-42
2022/09/08 11:27:56;;;;;;;6.93;2.70;;;;;;;;;;4890430;29;20188;-43
2022/09/08 11:30:23;;;;;;;10.63;2.83;;;;;;;;;;4890208;29;20298;-43
2022/09/08 11:33:02;;;;;;;8.97;2.90;;;;;;;;;;4888690;29;20188;-43
2022/09/08 11:35:45;;;;;;;7.77;2.60;;;;;;;;;;4894342;29;20304;-41
2022/09/08 11:38:30;;;;;;;9.63;2.77;;;;;;;;;;4898744;29;20168;-43
2022/09/08 11:40:56;;;;;;;6.13;2.40;;;;;;;;;;4892024;29;20311;-43
2022/09/08 11:43:58;;;;;;;8.77;2.80;;;;;;;;;;4887240;29;20307;-43
2022/09/08 11:46:36;;;;;;;7.27;2.53;;;;;;;;;;4916817;28;21087;-43
2022/09/08 11:49:22;;;;;;;9.90;2.70;;;;;;;;;;4906429;28;20729;-43
2022/09/08 11:51:48;;;;;;;7.40;2.77;;;;;;;;;;4890472;29;20173;-43
2022/09/08 11:54:37;;;;;;;10.57;2.77;;;;;;;;;;4888582;29;21026;-43
2022/09/08 11:57:21;;;;;;;7.33;2.43;;;;;;;;;;4892813;28;20227;-42
2022/09/08 11:59:53;;;;;;;9.87;2.63;;;;;;;;;;4892286;29;20188;-43
2022/09/08 12:02:41;;;;;;;6.50;2.80;;;;;;;;;;4892943;29;20184;-43
2022/09/08 12:05:07;;;;;;;10.57;2.53;;;;;;;;;;4889142;29;20738;-43
2022/09/08 12:07:39;;;;;;;7.97;2.90;;;;;;;;;;4888807;29;20180;-43
2022/09/08 12:10:08;;;;;;;7.43;2.93;;;;;;;;;;4891999;29;20582;-43
2022/09/08 12:13:13;;;;;;;8.93;2.97;;;;;;;;;;4891011;29;20176;-43
2022/09/08 12:15:42;;;;;;;10.43;3.20;;;;;;;;;;4901825;28;20644;-42
2022/09/08 12:18:27;;;;;;;10.33;3.27;;;;;;;;;;4909449;28;20796;-43
2022/09/08 12:21:08;;;;;;;10.00;2.73;;;;;;;;;;4906745;28;20513;-43
2022/09/08 12:23:40;;;;;;;7.27;2.50;;;;;;;;;;4896495;29;20202;-42
2022/09/08 12:26:16;;;;;;;8.77;3.07;;;;;;;;;;4895420;29;20443;-43
2022/09/08 12:28:48;;;;;;;10.30;3.10;;;;;;;;;;4895792;29;20379;-43
2022/09/08 12:31:17;;;;;;;10.10;2.40;;;;;;;;;;4898133;29;20179;-43
2022/09/08 12:33:55;;;;;;;5.33;2.60;;;;;;;;;;4898774;29;20189;-42
2022/09/08 12:36:37;;;;;;;5.90;2.63;;;;;;;;;;4897780;29;20187;-43
2022/09/08 12:39:12;;;;;;;5.40;2.27;;;;;;;;;;4898146;29;20476;-43
2022/09/08 12:41:38;;;;;;;9.37;2.40;;;;;;;;;;4895208;29;20409;-43
2022/09/08 12:44:11;;;;;;;8.03;2.50;;;;;;;;;;4898151;29;20372;-43
2022/09/08 12:46:49;;;;;;;9.53;2.80;;;;;;;;;;4899202;29;20176;-43
2022/09/08 12:49:35;;;;;;;9.50;2.17;;;;;;;;;;4896261;29;20653;-41
2022/09/08 12:52:02;;;;;;;9.50;2.40;;;;;;;;;;4891896;29;20188;-42
2022/09/08 12:54:37;;;;;;;9.17;2.93;;;;;;;;;;4895007;29;20878;-43
2022/09/08 12:57:06;;;;;;;8.60;2.20;;;;;;;;;;4899966;29;20187;-43
2022/09/08 12:59:44;;;;;;;7.43;2.50;;;;;;;;;;4897784;29;20714;-43
2022/09/08 13:02:16;;;;;;;6.83;2.23;;;;;;;;;;4895301;29;20176;-43
2022/09/08 13:04:55;;;;;;;6.07;2.40;;;;;;;;;;4897939;29;21189;-43
2022/09/08 13:07:24;;;;;;;12.07;2.60;;;;;;;;;;4899348;29;20176;-43
2022/09/08 13:10:03;;;;;;;9.07;2.80;;;;;;;;;;4899255;29;20836;-42
2022/09/08 13:12:45;;;;;;;6.37;2.30;;;;;;;;;;4895046;29;20172;-43
2022/09/08 13:15:17;;;;;;;7.27;2.60;;;;;;;;;;4898813;29;20645;-42
2022/09/08 13:17:50;;;;;;;5.63;2.37;;;;;;;;;;4897828;29;20210;-43
2022/09/08 13:20:34;;;;;;;7.30;2.53;;;;;;;;;;4899546;29;21041;-43
2022/09/08 13:23:19;;;;;;;7.70;2.30;;;;;;;;;;4898404;29;20211;-43
2022/09/08 13:26:00;;;;;;;8.30;2.77;;;;;;;;;;4901296;28;20199;-43
2022/09/08 13:28:26;;;;;;;7.73;2.40;;;;;;;;;;4903508;29;20428;-43
2022/09/08 13:30:52;;;;;;;5.97;2.23;;;;;;;;;;4888320;29;20188;-43
2022/09/08 13:33:18;;;;;;;6.10;2.30;;;;;;;;;;4896168;29;20752;-41
2022/09/08 13:35:47;;;;;;;6.53;2.60;;;;;;;;;;4896285;29;20660;-43
2022/09/08 13:38:33;;;;;;;4.70;2.20;;;;;;;;;;4890191;29;20196;-42
2022/09/08 13:41:35;;;;;;;8.43;2.87;;;;;;;;;;4891503;29;20367;-43
2022/09/08 13:44:19;;;;;;;7.23;2.43;;;;;;;;;;4926764;28;20259;-43
2022/09/08 13:46:45;;;;;;;9.47;2.20;;;;;;;;;;4896301;28;20949;-43
2022/09/08 13:49:21;;;;;;;8.17;2.50;;;;;;;;;;4890222;29;20281;-43
2022/09/08 13:51:49;;;;;;;9.90;2.90;;;;;;;;;;4890299;29;20639;-43
2022/09/08 13:54:30;;;;;;;8.33;2.90;;;;;;;;;;4882973;29;21041;-43
2022/09/08 13:57:18;;;;;;;6.20;2.53;;;;;;;;;;4891275;29;20275;-43
2022/09/08 13:59:47;;;;;;;7.30;2.50;;;;;;;;;;4888234;29;20652;-43
2022/09/08 14:02:20;;;;;;;4.93;2.40;;;;;;;;;;4888117;29;20784;-42
2022/09/08 14:04:48;;;;;;;7.60;2.20;;;;;;;;;;4890601;29;20558;-41
2022/09/08 14:07:20;;;;;;;7.57;2.47;;;;;;;;;;4898965;29;20500;-43
2022/09/08 14:10:06;;;;;;;5.13;2.13;;;;;;;;;;4898069;29;21023;-43
2022/09/08 14:12:32;;;;;;;8.57;2.20;;;;;;;;;;4896831;29;20178;-43
2022/09/08 14:15:10;;;;;;;8.10;2.47;;;;;;;;;;4895078;29;20505;-42
2022/09/08 14:17:49;;;;;;;7.57;1.90;;;;;;;;;;4892740;29;20217;-43
2022/09/08 14:20:34;;;;;;;6.07;2.07;;;;;;;;;;4889562;29;20574;-42
2022/09/08 14:23:06;;;;;;;7.10;2.30;;;;;;;;;;4888989;29;20187;-43
2022/09/08 14:25:36;;;;;;;9.73;2.10;;;;;;;;;;4889187;29;20837;-43
2022/09/08 14:28:19;;;;;;;6.50;2.10;;;;;;;;;;4898503;29;20191;-43
2022/09/08 14:30:48;;;;;;;6.37;1.70;;;;;;;;;;4900029;29;20503;-41
2022/09/08 14:33:26;;;;;;;5.87;2.20;;;;;;;;;;4896470;29;20209;-43
2022/09/08 14:35:55;;;;;;;5.57;1.70;;;;;;;;;;4886713;29;20686;-43
2022/09/08 14:38:31;;;;;;;6.77;1.50;;;;;;;;;;4882976;29;20579;-43
2022/09/08 14:41:00;;;;;;;3.27;1.30;;;;;;;;;;4886365;29;20184;-43
2022/09/08 14:43:32;;;;;;;5.57;1.53;;;;;;;;;;4883844;29;20689;-43
2022/09/08 14:46:07;;;;;;;6.60;1.20;;;;;;;;;;4883991;29;20203;-43
2022/09/08 14:48:37;;;;;;;9.10;1.37;;;;;;;;;;4888318;29;20742;-43
2022/09/08 14:51:13;;;;;;;7.80;1.30;;;;;;;;;;4882856;28;20513;-43
2022/09/08 14:53:59;;;;;;;7.43;1.20;;;;;;;;;;4890108;29;20714;-42
2022/09/08 14:56:27;;;;;;;5.50;1.27;;;;;;;;;;4893107;28;20545;-41
2022/09/08 14:59:06;;;;;;;6.30;1.10;;;;;;;;;;4894322;29;20200;-43
2022/09/08 15:01:36;;;;;;;5.00;1.10;;;;;;;;;;4895082;29;20279;-43